EZY26WL EGJJ-EGKK
Flight info
| Callsign | EZY26WL |
|---|---|
| Flight time | 0h 33m |
| Altitude | 23000 |
| Route | ORIST L982 VASUX |
| Aircraft | A320/M-SDE2E3FGHIJ1RWXYZ/LB1 |
Departure
| Time | 2026-05-06 14:55 |
|---|---|
| Airport | Jersey Airport (EGJJ) |
Arrival
| Time | 2026-05-06 15:28 |
|---|---|
| Airport | London Gatwick Airport (EGKK) |
| Time | Latitude | Longitude | Altitude | Speed | Heading |
|---|---|---|---|---|---|
| 2026-05-06 14:43 | 49.20493 | -2.19733 | 281 ft | 0 kts | 352° |
| 2026-05-06 14:49 | 49.20479 | -2.19730 | 281 ft | 4 kts | 350° |
| 2026-05-06 14:49 | 49.20454 | -2.19719 | 281 ft | 4 kts | 324° |
| 2026-05-06 14:50 | 49.20444 | -2.19696 | 286 ft | 1 kts | 264° |
| 2026-05-06 14:50 | 49.20445 | -2.19689 | 285 ft | 0 kts | 264° |
| 2026-05-06 14:52 | 49.20444 | -2.19697 | 286 ft | 5 kts | 265° |
| 2026-05-06 14:52 | 49.20440 | -2.19824 | 281 ft | 14 kts | 268° |
| 2026-05-06 14:53 | 49.20490 | -2.19923 | 282 ft | 13 kts | 347° |
| 2026-05-06 14:53 | 49.20526 | -2.20026 | 280 ft | 15 kts | 283° |
| 2026-05-06 14:53 | 49.20564 | -2.20224 | 280 ft | 20 kts | 287° |
| 2026-05-06 14:53 | 49.20605 | -2.20423 | 280 ft | 19 kts | 287° |
| 2026-05-06 14:54 | 49.20629 | -2.20606 | 280 ft | 17 kts | 270° |
| 2026-05-06 14:54 | 49.20681 | -2.20700 | 279 ft | 12 kts | 1° |
| 2026-05-06 14:54 | 49.20714 | -2.20577 | 279 ft | 19 kts | 82° |
| 2026-05-06 14:54 | 49.20763 | -2.19975 | 281 ft | 94 kts | 83° |
| 2026-05-06 14:55 | 49.20867 | -2.18690 | 407 ft | 139 kts | 82° |
| 2026-05-06 14:55 | 49.20985 | -2.17217 | 1108 ft | 140 kts | 82° |
| 2026-05-06 14:55 | 49.21112 | -2.15708 | 1747 ft | 151 kts | 81° |
| 2026-05-06 14:55 | 49.21250 | -2.14015 | 2098 ft | 171 kts | 82° |
| 2026-05-06 14:56 | 49.21407 | -2.12090 | 2397 ft | 193 kts | 82° |
| 2026-05-06 14:56 | 49.21580 | -2.09951 | 2755 ft | 213 kts | 82° |
| 2026-05-06 14:56 | 49.21771 | -2.07595 | 3212 ft | 235 kts | 82° |
| 2026-05-06 14:56 | 49.22007 | -2.05020 | 3998 ft | 243 kts | 74° |
| 2026-05-06 14:57 | 49.22818 | -2.02899 | 5308 ft | 230 kts | 39° |
| 2026-05-06 14:57 | 49.24264 | -2.02001 | 6212 ft | 228 kts | 360° |
| 2026-05-06 14:57 | 49.25837 | -2.02262 | 7051 ft | 228 kts | 348° |
| 2026-05-06 14:57 | 49.27439 | -2.02693 | 7677 ft | 244 kts | 348° |
| 2026-05-06 14:58 | 49.29194 | -2.03177 | 8124 ft | 268 kts | 348° |
| 2026-05-06 14:58 | 49.31067 | -2.03701 | 8848 ft | 278 kts | 348° |
| 2026-05-06 14:58 | 49.32994 | -2.04167 | 9739 ft | 283 kts | 353° |
| 2026-05-06 14:58 | 49.34976 | -2.04265 | 10570 ft | 288 kts | 359° |
| 2026-05-06 14:59 | 49.36990 | -2.04152 | 11407 ft | 292 kts | 1° |
| 2026-05-06 14:59 | 49.39002 | -2.03964 | 12240 ft | 295 kts | 2° |
| 2026-05-06 14:59 | 49.41065 | -2.03766 | 13086 ft | 299 kts | 2° |
| 2026-05-06 14:59 | 49.43186 | -2.03585 | 13927 ft | 303 kts | 1° |
| 2026-05-06 15:00 | 49.45276 | -2.03434 | 14654 ft | 307 kts | 1° |
| 2026-05-06 15:00 | 49.47419 | -2.03300 | 15404 ft | 310 kts | 0° |
| 2026-05-06 15:00 | 49.49591 | -2.03180 | 16144 ft | 314 kts | 0° |
| 2026-05-06 15:00 | 49.51788 | -2.03065 | 16873 ft | 318 kts | 0° |
| 2026-05-06 15:01 | 49.54013 | -2.02947 | 17561 ft | 322 kts | 0° |
| 2026-05-06 15:01 | 49.56265 | -2.02831 | 18263 ft | 326 kts | 360° |
| 2026-05-06 15:01 | 49.58545 | -2.02715 | 18870 ft | 329 kts | 360° |
| 2026-05-06 15:01 | 49.60848 | -2.02595 | 19483 ft | 332 kts | 0° |
| 2026-05-06 15:02 | 49.63168 | -2.02472 | 20100 ft | 335 kts | 0° |
| 2026-05-06 15:02 | 49.65506 | -2.02351 | 20716 ft | 338 kts | 0° |
| 2026-05-06 15:02 | 49.67866 | -2.02232 | 21322 ft | 340 kts | 0° |
| 2026-05-06 15:02 | 49.70243 | -2.02115 | 21922 ft | 343 kts | 0° |
| 2026-05-06 15:03 | 49.72638 | -2.01989 | 22524 ft | 346 kts | 0° |
| 2026-05-06 15:03 | 49.75060 | -2.01858 | 22925 ft | 350 kts | 0° |
| 2026-05-06 15:03 | 49.77497 | -2.01609 | 23003 ft | 357 kts | 7° |
| 2026-05-06 15:03 | 49.79915 | -2.00611 | 23003 ft | 363 kts | 20° |
| 2026-05-06 15:04 | 49.82192 | -1.98898 | 23003 ft | 365 kts | 27° |
| 2026-05-06 15:04 | 49.84434 | -1.97047 | 23003 ft | 365 kts | 26° |
| 2026-05-06 15:04 | 49.86690 | -1.95215 | 23003 ft | 365 kts | 26° |
| 2026-05-06 15:04 | 49.88945 | -1.93403 | 23004 ft | 365 kts | 26° |
| 2026-05-06 15:05 | 49.91207 | -1.91599 | 23004 ft | 365 kts | 25° |
| 2026-05-06 15:05 | 49.93466 | -1.89795 | 23005 ft | 365 kts | 26° |
| 2026-05-06 15:05 | 49.95716 | -1.87987 | 23012 ft | 365 kts | 26° |
| 2026-05-06 15:05 | 49.97969 | -1.86163 | 23012 ft | 365 kts | 26° |
| 2026-05-06 15:06 | 50.00231 | -1.84332 | 23006 ft | 365 kts | 26° |
| 2026-05-06 15:06 | 50.02491 | -1.82522 | 23007 ft | 365 kts | 25° |
| 2026-05-06 15:06 | 50.04751 | -1.80733 | 23007 ft | 365 kts | 25° |
| 2026-05-06 15:06 | 50.07024 | -1.78939 | 23007 ft | 365 kts | 25° |
| 2026-05-06 15:07 | 50.09290 | -1.77147 | 23004 ft | 365 kts | 25° |
| 2026-05-06 15:07 | 50.11551 | -1.75334 | 23004 ft | 366 kts | 28° |
| 2026-05-06 15:07 | 50.13642 | -1.73077 | 23005 ft | 367 kts | 38° |
| 2026-05-06 15:07 | 50.15602 | -1.70530 | 23004 ft | 367 kts | 38° |
| 2026-05-06 15:08 | 50.17565 | -1.67986 | 22999 ft | 367 kts | 38° |
| 2026-05-06 15:08 | 50.19531 | -1.65442 | 23001 ft | 367 kts | 38° |
| 2026-05-06 15:08 | 50.21498 | -1.62895 | 23002 ft | 367 kts | 38° |
| 2026-05-06 15:08 | 50.23459 | -1.60350 | 22993 ft | 368 kts | 38° |
| 2026-05-06 15:09 | 50.25431 | -1.57787 | 22998 ft | 368 kts | 38° |
| 2026-05-06 15:09 | 50.27396 | -1.55231 | 22999 ft | 368 kts | 38° |
| 2026-05-06 15:09 | 50.29364 | -1.52682 | 22998 ft | 368 kts | 38° |
| 2026-05-06 15:09 | 50.31337 | -1.50134 | 23000 ft | 368 kts | 38° |
| 2026-05-06 15:10 | 50.33309 | -1.47584 | 22997 ft | 368 kts | 38° |
| 2026-05-06 15:10 | 50.35276 | -1.45026 | 22986 ft | 368 kts | 38° |
| 2026-05-06 15:10 | 50.37243 | -1.42467 | 22990 ft | 368 kts | 38° |
| 2026-05-06 15:10 | 50.39207 | -1.39909 | 22861 ft | 364 kts | 38° |
| 2026-05-06 15:11 | 50.41136 | -1.37400 | 22588 ft | 357 kts | 38° |
| 2026-05-06 15:11 | 50.43043 | -1.34921 | 22321 ft | 354 kts | 38° |
| 2026-05-06 15:11 | 50.44922 | -1.32473 | 21922 ft | 350 kts | 38° |
| 2026-05-06 15:11 | 50.46784 | -1.30037 | 21495 ft | 348 kts | 38° |
| 2026-05-06 15:12 | 50.48645 | -1.27613 | 21072 ft | 347 kts | 39° |
| 2026-05-06 15:12 | 50.50490 | -1.25177 | 20657 ft | 345 kts | 38° |
| 2026-05-06 15:12 | 50.52328 | -1.22763 | 20256 ft | 344 kts | 38° |
| 2026-05-06 15:12 | 50.54157 | -1.20362 | 19849 ft | 342 kts | 38° |
| 2026-05-06 15:13 | 50.55975 | -1.17979 | 19453 ft | 340 kts | 38° |
| 2026-05-06 15:13 | 50.57785 | -1.15604 | 19064 ft | 338 kts | 38° |
| 2026-05-06 15:13 | 50.59582 | -1.13238 | 18679 ft | 336 kts | 38° |
| 2026-05-06 15:13 | 50.61372 | -1.10876 | 18285 ft | 335 kts | 38° |
| 2026-05-06 15:14 | 50.63153 | -1.08527 | 17862 ft | 334 kts | 39° |
| 2026-05-06 15:14 | 50.64927 | -1.06182 | 17427 ft | 332 kts | 38° |
| 2026-05-06 15:14 | 50.66566 | -1.03616 | 16988 ft | 333 kts | 49° |
| 2026-05-06 15:14 | 50.68022 | -1.00806 | 16580 ft | 332 kts | 49° |
| 2026-05-06 15:15 | 50.69486 | -0.97981 | 16155 ft | 331 kts | 49° |
| 2026-05-06 15:15 | 50.70942 | -0.95174 | 15742 ft | 330 kts | 49° |
| 2026-05-06 15:15 | 50.72396 | -0.92368 | 15347 ft | 330 kts | 49° |
| 2026-05-06 15:15 | 50.73845 | -0.89567 | 14943 ft | 329 kts | 49° |
| 2026-05-06 15:16 | 50.74802 | -0.87718 | 14679 ft | 328 kts | 49° |
| 2026-05-06 15:16 | 50.76244 | -0.84926 | 14295 ft | 328 kts | 49° |
| 2026-05-06 15:16 | 50.77681 | -0.82141 | 13907 ft | 327 kts | 49° |
| 2026-05-06 15:16 | 50.79113 | -0.79364 | 13494 ft | 325 kts | 49° |
| 2026-05-06 15:17 | 50.80454 | -0.76503 | 13062 ft | 325 kts | 58° |
| 2026-05-06 15:17 | 50.81342 | -0.73215 | 12639 ft | 326 kts | 72° |
| 2026-05-06 15:17 | 50.81787 | -0.69703 | 12224 ft | 325 kts | 78° |
| 2026-05-06 15:17 | 50.82190 | -0.66193 | 11813 ft | 323 kts | 78° |
| 2026-05-06 15:18 | 50.82597 | -0.62702 | 11406 ft | 322 kts | 77° |
| 2026-05-06 15:18 | 50.83002 | -0.59235 | 11010 ft | 320 kts | 77° |
| 2026-05-06 15:18 | 50.83427 | -0.55793 | 10611 ft | 317 kts | 72° |
| 2026-05-06 15:18 | 50.84380 | -0.52739 | 10210 ft | 303 kts | 47° |
| 2026-05-06 15:19 | 50.85957 | -0.50739 | 9817 ft | 283 kts | 22° |
| 2026-05-06 15:19 | 50.87806 | -0.49953 | 9401 ft | 273 kts | 7° |
| 2026-05-06 15:19 | 50.89685 | -0.49509 | 8974 ft | 273 kts | 6° |
| 2026-05-06 15:19 | 50.91563 | -0.49089 | 8560 ft | 273 kts | 6° |
| 2026-05-06 15:20 | 50.93439 | -0.48674 | 8138 ft | 272 kts | 6° |
| 2026-05-06 15:20 | 50.95312 | -0.48392 | 7725 ft | 269 kts | 353° |
| 2026-05-06 15:20 | 50.97122 | -0.48886 | 7316 ft | 258 kts | 347° |
| 2026-05-06 15:20 | 50.98836 | -0.49492 | 6910 ft | 247 kts | 346° |
| 2026-05-06 15:21 | 51.00480 | -0.50089 | 6521 ft | 237 kts | 346° |
| 2026-05-06 15:21 | 51.02062 | -0.50662 | 6117 ft | 230 kts | 346° |
| 2026-05-06 15:21 | 51.03618 | -0.51233 | 5707 ft | 227 kts | 346° |
| 2026-05-06 15:21 | 51.05140 | -0.51807 | 5293 ft | 222 kts | 346° |
| 2026-05-06 15:22 | 51.06627 | -0.52391 | 4880 ft | 218 kts | 346° |
| 2026-05-06 15:22 | 51.08086 | -0.52988 | 4477 ft | 214 kts | 346° |
| 2026-05-06 15:22 | 51.09535 | -0.53412 | 4052 ft | 211 kts | 4° |
| 2026-05-06 15:22 | 51.10882 | -0.52635 | 3640 ft | 209 kts | 38° |
| 2026-05-06 15:23 | 51.11667 | -0.50733 | 3342 ft | 209 kts | 74° |
| 2026-05-06 15:23 | 51.11546 | -0.48479 | 3084 ft | 206 kts | 107° |
| 2026-05-06 15:23 | 51.11197 | -0.46411 | 3002 ft | 187 kts | 86° |
| 2026-05-06 15:23 | 51.11324 | -0.44468 | 2991 ft | 168 kts | 76° |
| 2026-05-06 15:24 | 51.11534 | -0.42714 | 2955 ft | 157 kts | 75° |
| 2026-05-06 15:24 | 51.11759 | -0.41022 | 2820 ft | 157 kts | 73° |
| 2026-05-06 15:24 | 51.11990 | -0.39339 | 2633 ft | 152 kts | 73° |
| 2026-05-06 15:24 | 51.12211 | -0.37741 | 2433 ft | 144 kts | 73° |
| 2026-05-06 15:25 | 51.12423 | -0.36221 | 2232 ft | 138 kts | 71° |
| 2026-05-06 15:25 | 51.12630 | -0.34739 | 2055 ft | 137 kts | 72° |
| 2026-05-06 15:25 | 51.12837 | -0.33262 | 1870 ft | 137 kts | 73° |
| 2026-05-06 15:25 | 51.13042 | -0.31794 | 1687 ft | 135 kts | 71° |
| 2026-05-06 15:26 | 51.13246 | -0.30331 | 1502 ft | 135 kts | 71° |
| 2026-05-06 15:26 | 51.13448 | -0.28876 | 1317 ft | 134 kts | 71° |
| 2026-05-06 15:26 | 51.13647 | -0.27443 | 1124 ft | 132 kts | 73° |
| 2026-05-06 15:26 | 51.13844 | -0.26032 | 939 ft | 130 kts | 74° |
| 2026-05-06 15:27 | 51.14039 | -0.24617 | 760 ft | 131 kts | 73° |
| 2026-05-06 15:27 | 51.14233 | -0.23220 | 568 ft | 129 kts | 74° |
| 2026-05-06 15:27 | 51.14425 | -0.21831 | 405 ft | 128 kts | 74° |
| 2026-05-06 15:27 | 51.14611 | -0.20455 | 239 ft | 126 kts | 74° |
| 2026-05-06 15:28 | 51.14791 | -0.19191 | 206 ft | 98 kts | 78° |
| 2026-05-06 15:28 | 51.14897 | -0.18416 | 207 ft | 41 kts | 77° |
| 2026-05-06 15:28 | 51.14949 | -0.18050 | 208 ft | 25 kts | 70° |
| 2026-05-06 15:28 | 51.15025 | -0.17847 | 209 ft | 18 kts | 50° |
| 2026-05-06 15:29 | 51.15066 | -0.17775 | 209 ft | 5 kts | 45° |
| 2026-05-06 15:29 | 51.15086 | -0.17754 | 206 ft | 3 kts | 17° |
| 2026-05-06 15:29 | 51.15099 | -0.17754 | 208 ft | 1 kts | 359° |
| 2026-05-06 15:29 | 51.15126 | -0.17758 | 207 ft | 6 kts | 353° |
| 2026-05-06 15:30 | 51.15174 | -0.17769 | 208 ft | 8 kts | 351° |
| 2026-05-06 15:30 | 51.15224 | -0.17782 | 207 ft | 4 kts | 350° |
| 2026-05-06 15:30 | 51.15232 | -0.17784 | 209 ft | 0 kts | 350° |
| 2026-05-06 15:30 | 51.15233 | -0.17785 | 209 ft | 0 kts | 350° |
| 2026-05-06 15:31 | 51.15234 | -0.17785 | 210 ft | 0 kts | 350° |
| 2026-05-06 15:31 | 51.15244 | -0.17801 | 214 ft | 4 kts | 307° |
| 2026-05-06 15:31 | 51.15246 | -0.17847 | 211 ft | 4 kts | 266° |
| 2026-05-06 15:32 | 51.15231 | -0.17959 | 209 ft | 5 kts | 256° |
| 2026-05-06 15:32 | 51.15220 | -0.18048 | 206 ft | 10 kts | 274° |
| 2026-05-06 15:32 | 51.15272 | -0.18106 | 207 ft | 10 kts | 349° |
| 2026-05-06 15:32 | 51.15351 | -0.18132 | 208 ft | 13 kts | 347° |
| 2026-05-06 15:33 | 51.15428 | -0.18156 | 205 ft | 12 kts | 349° |
| 2026-05-06 15:33 | 51.15518 | -0.18191 | 214 ft | 14 kts | 339° |
| 2026-05-06 15:33 | 51.15616 | -0.18232 | 215 ft | 14 kts | 0° |
| 2026-05-06 15:33 | 51.15677 | -0.18135 | 213 ft | 14 kts | 77° |
| 2026-05-06 15:34 | 51.15699 | -0.17967 | 208 ft | 17 kts | 77° |
| 2026-05-06 15:34 | 51.14700 | -0.19810 | 207 ft | 0 kts | 73° |